createdAt,value
2022-07-29T00:00:22.575Z,16.9
2022-07-29T00:05:27.940Z,16.7
2022-07-29T00:10:16.901Z,16.6
2022-07-29T00:15:23.218Z,16.6
2022-07-29T00:20:29.457Z,16.7
2022-07-29T00:25:18.111Z,16.7
2022-07-29T00:30:24.418Z,16.5
2022-07-29T00:35:30.351Z,16.5
2022-07-29T00:40:23.501Z,16.4
2022-07-29T00:45:25.162Z,16.4
2022-07-29T00:50:31.077Z,16.3
2022-07-29T00:55:20.185Z,16.4
2022-07-29T01:00:26.450Z,16.5
2022-07-29T01:05:50.458Z,16.6
2022-07-29T01:10:20.732Z,16.5
2022-07-29T01:15:26.708Z,16.2
2022-07-29T01:20:33.069Z,16.1
2022-07-29T01:25:23.298Z,16.1
2022-07-29T01:30:27.949Z,16.0
2022-07-29T01:35:16.980Z,16.0
2022-07-29T01:40:22.982Z,16.0
2022-07-29T01:45:29.215Z,15.9
2022-07-29T01:50:18.391Z,16.0
2022-07-29T01:55:24.182Z,15.9
2022-07-29T02:00:30.202Z,16.2
2022-07-29T02:05:18.716Z,16.0
2022-07-29T02:10:25.900Z,16.1
2022-07-29T02:15:31.158Z,16.0
2022-07-29T02:20:20.082Z,16.0
2022-07-29T02:25:25.898Z,16.0
2022-07-29T02:30:32.532Z,16.3
2022-07-29T02:35:21.111Z,16.7
2022-07-29T02:40:27.015Z,17.2
2022-07-29T02:45:32.836Z,17.4
2022-07-29T02:50:21.776Z,17.7
2022-07-29T02:55:27.856Z,18.0
2022-07-29T03:00:16.943Z,18.1
2022-07-29T03:05:22.377Z,18.2
2022-07-29T03:10:28.415Z,18.2
2022-07-29T03:15:17.498Z,17.8
2022-07-29T03:20:23.627Z,17.6
2022-07-29T03:25:29.714Z,17.8
2022-07-29T03:30:21.694Z,17.7
2022-07-29T03:35:24.661Z,17.4
2022-07-29T03:40:30.658Z,17.3
2022-07-29T03:45:19.481Z,17.6
2022-07-29T03:50:25.742Z,17.4
2022-07-29T03:55:31.960Z,17.5
2022-07-29T04:00:20.963Z,17.6
2022-07-29T04:05:26.286Z,17.7
2022-07-29T04:10:34.154Z,17.9
2022-07-29T04:15:21.363Z,18.1
2022-07-29T04:20:27.441Z,18.0
2022-07-29T04:25:16.516Z,17.9
2022-07-29T04:30:23.709Z,17.8
2022-07-29T04:35:28.519Z,17.9
2022-07-29T04:40:18.705Z,17.7
2022-07-29T04:45:23.336Z,17.5
2022-07-29T04:50:30.755Z,17.5
2022-07-29T04:55:18.573Z,17.4
2022-07-29T05:00:29.194Z,17.4
2022-07-29T05:05:30.968Z,17.4
2022-07-29T05:10:20.052Z,17.5
2022-07-29T05:15:26.347Z,17.9
2022-07-29T05:20:32.387Z,18.2
2022-07-29T05:25:21.241Z,18.3
2022-07-29T05:30:27.203Z,18.0
2022-07-29T05:35:17.497Z,17.9
2022-07-29T05:40:25.165Z,17.9
2022-07-29T05:45:28.345Z,17.8
2022-07-29T05:50:17.178Z,18.0
2022-07-29T05:55:23.220Z,18.3
2022-07-29T06:00:29.536Z,18.5
2022-07-29T06:05:18.941Z,18.3
2022-07-29T06:10:26.270Z,18.3
2022-07-29T06:15:31.307Z,18.5
2022-07-29T06:20:20.380Z,18.5
2022-07-29T06:25:26.368Z,18.5
2022-07-29T06:30:32.327Z,18.7
2022-07-29T06:35:39.278Z,18.7
2022-07-29T06:40:27.458Z,18.9
2022-07-29T06:45:33.208Z,18.8
2022-07-29T06:50:22.114Z,18.8
2022-07-29T06:55:28.229Z,18.8
2022-07-29T07:00:17.213Z,18.8
2022-07-29T07:05:22.692Z,18.9
2022-07-29T07:10:28.791Z,19.1
2022-07-29T07:15:17.739Z,19.3
2022-07-29T07:20:23.857Z,19.3
2022-07-29T07:25:29.932Z,19.2
2022-07-29T07:30:18.895Z,19.4
2022-07-29T07:35:25.194Z,19.4
2022-07-29T07:40:31.583Z,19.7
2022-07-29T07:45:19.779Z,19.8
2022-07-29T07:50:25.973Z,19.9
2022-07-29T07:55:53.500Z,20.0
2022-07-29T08:00:23.678Z,20.1
2022-07-29T08:05:27.246Z,20.2
2022-07-29T08:10:33.033Z,20.2
2022-07-29T08:15:21.915Z,20.5
2022-07-29T08:20:28.045Z,21.1
2022-07-29T08:25:17.189Z,21.3
2022-07-29T08:30:23.205Z,21.9
2022-07-29T08:35:34.790Z,22.0
2022-07-29T08:40:18.268Z,22.3
2022-07-29T08:45:24.573Z,22.5
2022-07-29T08:50:29.677Z,22.5
2022-07-29T08:55:21.248Z,22.6
2022-07-29T09:00:24.842Z,23.0
2022-07-29T09:05:30.142Z,23.2
2022-07-29T09:10:19.267Z,23.1
2022-07-29T09:15:25.147Z,23.1
2022-07-29T09:20:31.168Z,22.9
2022-07-29T09:25:20.274Z,22.7
2022-07-29T09:30:31.334Z,23.0
2022-07-29T09:35:32.480Z,23.5
2022-07-29T09:40:21.397Z,24.1
2022-07-29T09:45:27.609Z,24.2
2022-07-29T09:50:16.454Z,24.1
2022-07-29T09:55:22.638Z,23.5
2022-07-29T10:00:29.137Z,23.4
2022-07-29T10:05:17.256Z,24.3
2022-07-29T10:10:23.166Z,23.7
2022-07-29T10:15:29.385Z,24.0
2022-07-29T10:20:18.551Z,24.4
2022-07-29T10:25:24.632Z,25.2
2022-07-29T10:30:30.484Z,24.8
2022-07-29T10:35:19.451Z,25.1
2022-07-29T10:40:25.595Z,24.3
2022-07-29T10:45:31.465Z,24.8
2022-07-29T10:50:20.256Z,24.3
2022-07-29T10:55:26.366Z,24.7
2022-07-29T11:00:33.459Z,25.1
2022-07-29T11:05:21.970Z,24.9
2022-07-29T11:10:31.339Z,25.6
2022-07-29T11:15:17.034Z,25.6
2022-07-29T11:20:23.148Z,26.0
2022-07-29T11:25:50.099Z,26.1
2022-07-29T11:30:18.088Z,26.1
2022-07-29T11:35:36.997Z,25.9
2022-07-29T11:40:30.602Z,26.1
2022-07-29T11:45:41.325Z,26.0
2022-07-29T11:50:26.924Z,26.7
2022-07-29T11:55:32.613Z,27.0
2022-07-29T12:00:20.332Z,26.7
2022-07-29T12:05:36.371Z,26.9
2022-07-29T12:10:31.787Z,26.7
2022-07-29T12:15:21.233Z,26.9
2022-07-29T12:20:26.915Z,27.0
2022-07-29T12:25:33.901Z,27.2
2022-07-29T12:30:21.952Z,26.9
2022-07-29T12:35:28.259Z,26.9
2022-07-29T12:40:17.956Z,27.0
2022-07-29T12:45:22.882Z,26.8
2022-07-29T12:50:28.932Z,27.2
2022-07-29T12:55:17.958Z,27.3
2022-07-29T13:00:23.997Z,27.4
2022-07-29T13:05:29.735Z,27.6
2022-07-29T13:10:18.563Z,27.6
2022-07-29T13:15:24.655Z,27.5
2022-07-29T13:20:30.699Z,27.4
2022-07-29T13:25:19.708Z,27.6
2022-07-29T13:30:25.822Z,27.2
2022-07-29T13:35:33.267Z,27.0
2022-07-29T13:40:21.007Z,26.8
2022-07-29T13:45:26.565Z,27.1
2022-07-29T13:50:32.552Z,26.9
2022-07-29T13:55:21.616Z,26.8
2022-07-29T14:00:27.637Z,26.8
2022-07-29T14:05:16.588Z,26.7
2022-07-29T14:10:22.179Z,26.6
2022-07-29T14:15:28.236Z,26.6
2022-07-29T14:20:17.361Z,26.3
2022-07-29T14:25:23.624Z,26.0
2022-07-29T14:30:29.477Z,25.6
2022-07-29T14:35:18.412Z,24.9
2022-07-29T14:40:24.509Z,23.1
2022-07-29T14:45:30.758Z,21.8
2022-07-29T14:50:23.359Z,19.7
2022-07-29T14:55:25.857Z,18.5
2022-07-29T15:00:31.814Z,18.1
2022-07-29T15:05:20.408Z,17.9
2022-07-29T15:10:26.540Z,17.9
2022-07-29T15:15:34.897Z,17.9
2022-07-29T15:20:21.782Z,17.7
2022-07-29T15:25:27.991Z,17.9
2022-07-29T15:30:31.595Z,18.0
2022-07-29T15:35:23.109Z,18.2
2022-07-29T15:40:28.899Z,18.3
2022-07-29T15:45:17.858Z,18.3
2022-07-29T15:50:24.112Z,18.4
2022-07-29T15:55:30.200Z,18.4
2022-07-29T16:00:19.126Z,18.3
2022-07-29T16:05:24.589Z,18.2
2022-07-29T16:10:30.951Z,18.0
2022-07-29T16:15:19.658Z,17.9
2022-07-29T16:20:25.645Z,18.0
2022-07-29T16:25:57.618Z,18.0
2022-07-29T16:30:20.912Z,18.0
2022-07-29T16:35:39.880Z,18.1
2022-07-29T16:40:33.594Z,18.0
2022-07-29T16:45:21.703Z,18.0
2022-07-29T16:50:27.882Z,18.0
2022-07-29T16:55:16.834Z,18.1
2022-07-29T17:00:22.967Z,18.1
2022-07-29T17:05:28.628Z,18.0
2022-07-29T17:10:17.666Z,18.1
2022-07-29T17:15:23.723Z,18.1
2022-07-29T17:20:29.676Z,18.1
2022-07-29T17:25:20.773Z,17.9
2022-07-29T17:30:24.684Z,17.8
2022-07-29T17:35:30.724Z,17.7
2022-07-29T17:40:19.846Z,17.5
2022-07-29T17:45:25.610Z,17.2
2022-07-29T17:50:31.759Z,17.0
2022-07-29T17:55:20.641Z,16.9
2022-07-29T18:00:26.846Z,17.0
2022-07-29T18:05:32.954Z,16.8
2022-07-29T18:10:21.426Z,16.8
2022-07-29T18:15:27.463Z,16.9
2022-07-29T18:20:16.559Z,16.9
2022-07-29T18:25:22.844Z,17.0
2022-07-29T18:30:28.698Z,17.0
2022-07-29T18:35:17.682Z,17.1
2022-07-29T18:40:23.910Z,17.0
2022-07-29T18:45:29.672Z,16.9
2022-07-29T18:50:19.780Z,17.1
2022-07-29T18:55:24.873Z,17.1
2022-07-29T19:00:30.891Z,17.1
2022-07-29T19:05:19.377Z,17.2
2022-07-29T19:10:25.541Z,17.1
2022-07-29T19:15:31.412Z,17.0
2022-07-29T19:20:20.487Z,16.9
2022-07-29T19:25:26.453Z,17.0
2022-07-29T19:30:32.566Z,17.0
2022-07-29T19:35:21.596Z,17.0
2022-07-29T19:40:27.719Z,17.0
2022-07-29T19:45:16.647Z,16.9
2022-07-29T19:50:22.576Z,16.9
2022-07-29T19:55:28.729Z,16.9
2022-07-29T20:00:17.924Z,16.8
2022-07-29T20:05:27.870Z,16.7
2022-07-29T20:10:29.329Z,16.8
2022-07-29T20:15:18.354Z,16.7
2022-07-29T20:20:24.491Z,16.6
2022-07-29T20:25:30.548Z,16.6
2022-07-29T20:30:19.486Z,16.7
2022-07-29T20:35:25.535Z,16.7
2022-07-29T20:40:31.629Z,16.8
2022-07-29T20:45:20.277Z,16.9
2022-07-29T20:50:26.340Z,16.9
2022-07-29T20:55:32.742Z,16.9
2022-07-29T21:00:21.610Z,16.9
2022-07-29T21:05:27.876Z,16.8
2022-07-29T21:10:17.010Z,16.8
2022-07-29T21:15:23.045Z,16.8
2022-07-29T21:20:29.193Z,16.7
2022-07-29T21:25:18.286Z,16.7
2022-07-29T21:30:24.177Z,16.7
2022-07-29T21:36:06.162Z,16.7
2022-07-29T21:40:19.288Z,16.6
2022-07-29T21:45:25.087Z,16.6
2022-07-29T21:50:24.226Z,16.6
2022-07-29T21:55:20.579Z,16.6
2022-07-29T22:00:26.714Z,16.5
2022-07-29T22:05:31.850Z,16.5
2022-07-29T22:10:20.762Z,16.5
2022-07-29T22:15:26.809Z,16.5
2022-07-29T22:20:32.877Z,16.4
2022-07-29T22:25:21.905Z,16.4
2022-07-29T22:30:27.979Z,16.4
2022-07-29T22:35:16.987Z,16.3
2022-07-29T22:40:30.735Z,16.2
2022-07-29T22:45:28.970Z,16.2
2022-07-29T22:50:17.803Z,16.2
2022-07-29T22:55:24.107Z,16.1
2022-07-29T23:00:31.641Z,16.0
2022-07-29T23:05:18.415Z,16.0
2022-07-29T23:10:31.509Z,16.0
2022-07-29T23:15:31.006Z,15.9
2022-07-29T23:20:19.604Z,15.9
2022-07-29T23:25:25.762Z,15.8
2022-07-29T23:30:32.634Z,15.8
2022-07-29T23:35:21.086Z,15.7
2022-07-29T23:40:28.931Z,15.6
2022-07-29T23:45:42.576Z,15.6
2022-07-29T23:50:21.098Z,15.5
2022-07-29T23:55:37.168Z,15.5
